createdAt,value
2022-12-16T00:00:52.000Z,262.4
2022-12-16T00:01:25.000Z,262.38
2022-12-16T00:02:50.000Z,262.35
2022-12-16T00:04:53.000Z,262.37
2022-12-16T00:06:18.000Z,262.35
2022-12-16T00:08:21.000Z,262.34
2022-12-16T00:09:45.000Z,262.28
2022-12-16T00:11:49.000Z,262.31
2022-12-16T00:13:13.000Z,262.31
2022-12-16T00:15:17.000Z,262.28
2022-12-16T00:16:41.000Z,262.3
2022-12-16T00:18:45.000Z,262.28
2022-12-16T00:20:09.000Z,262.25
2022-12-16T00:22:12.000Z,262.23
2022-12-16T00:23:37.000Z,262.23
2022-12-16T00:25:40.000Z,262.22
2022-12-16T00:27:05.000Z,262.22
2022-12-16T00:29:08.000Z,262.22
2022-12-16T00:30:33.000Z,262.22
2022-12-16T00:32:36.000Z,262.22
2022-12-16T00:35:19.000Z,262.23
2022-12-16T00:36:44.000Z,262.25
2022-12-16T00:38:47.000Z,262.25
2022-12-16T00:40:12.000Z,262.22
2022-12-16T00:42:15.000Z,262.21
2022-12-16T00:43:39.000Z,262.19
2022-12-16T00:45:43.000Z,262.18
2022-12-16T00:47:07.000Z,262.18
2022-12-16T00:49:11.000Z,262.19
2022-12-16T00:50:35.000Z,262.21
2022-12-16T00:52:39.000Z,262.22
2022-12-16T00:54:03.000Z,262.21
2022-12-16T00:56:06.000Z,262.21
2022-12-16T00:57:31.000Z,262.22
2022-12-16T00:59:34.000Z,262.23
2022-12-16T01:00:59.000Z,262.22
2022-12-16T01:03:02.000Z,262.21
2022-12-16T01:04:27.000Z,262.19
2022-12-16T01:06:30.000Z,262.16
2022-12-16T01:07:55.000Z,262.15
2022-12-16T01:09:58.000Z,262.15
2022-12-16T01:12:47.000Z,262.12
2022-12-16T01:14:12.000Z,262.07
2022-12-16T01:16:15.000Z,262.04
2022-12-16T01:17:40.000Z,262.03
2022-12-16T01:19:43.000Z,262
2022-12-16T01:21:08.000Z,262.01
2022-12-16T01:23:11.000Z,262
2022-12-16T01:24:36.000Z,262.01
2022-12-16T01:26:39.000Z,262.01
2022-12-16T01:28:04.000Z,262.01
2022-12-16T01:30:07.000Z,262
2022-12-16T01:31:32.000Z,262
2022-12-16T01:33:35.000Z,262
2022-12-16T01:35:00.000Z,262.01
2022-12-16T01:37:04.000Z,261.99
2022-12-16T01:38:28.000Z,261.97
2022-12-16T01:40:31.000Z,261.94
2022-12-16T01:41:56.000Z,261.94
2022-12-16T01:43:59.000Z,261.94
2022-12-16T01:45:24.000Z,261.94
2022-12-16T01:47:27.000Z,261.93
2022-12-16T01:50:16.000Z,261.92
2022-12-16T01:51:41.000Z,261.9
2022-12-16T01:53:44.000Z,261.92
2022-12-16T01:55:09.000Z,261.9
2022-12-16T01:57:12.000Z,261.92
2022-12-16T01:58:36.000Z,261.92
2022-12-16T02:00:40.000Z,261.9
2022-12-16T02:02:05.000Z,261.93
2022-12-16T02:04:08.000Z,261.92
2022-12-16T02:05:33.000Z,261.94
2022-12-16T02:07:36.000Z,261.96
2022-12-16T02:09:01.000Z,261.99
2022-12-16T02:11:04.000Z,261.96
2022-12-16T02:12:28.000Z,261.97
2022-12-16T02:14:32.000Z,261.97
2022-12-16T02:15:56.000Z,261.97
2022-12-16T02:18:00.000Z,261.96
2022-12-16T02:19:24.000Z,261.93
2022-12-16T02:21:28.000Z,261.93
2022-12-16T02:22:52.000Z,261.93
2022-12-16T02:24:55.000Z,261.9
2022-12-16T02:27:44.000Z,261.89
2022-12-16T02:29:09.000Z,261.88
2022-12-16T02:31:12.000Z,261.88
2022-12-16T02:32:37.000Z,261.9
2022-12-16T02:34:40.000Z,261.88
2022-12-16T02:36:04.000Z,261.88
2022-12-16T02:38:08.000Z,261.85
2022-12-16T02:39:32.000Z,261.86
2022-12-16T02:41:36.000Z,261.9
2022-12-16T02:43:00.000Z,261.93
2022-12-16T02:45:03.000Z,262
2022-12-16T02:46:28.000Z,262.04
2022-12-16T02:48:31.000Z,262.04
2022-12-16T02:49:56.000Z,262.07
2022-12-16T02:51:59.000Z,262.03
2022-12-16T02:53:23.000Z,262.01
2022-12-16T02:55:27.000Z,262
2022-12-16T02:56:51.000Z,261.97
2022-12-16T02:58:55.000Z,261.94
2022-12-16T03:00:19.000Z,261.9
2022-12-16T03:02:23.000Z,261.89
2022-12-16T03:05:12.000Z,261.86
2022-12-16T03:06:36.000Z,261.85
2022-12-16T03:08:40.000Z,261.88
2022-12-16T03:10:04.000Z,261.86
2022-12-16T03:12:08.000Z,261.85
2022-12-16T03:13:32.000Z,261.85
2022-12-16T03:15:36.000Z,261.83
2022-12-16T03:17:01.000Z,261.81
2022-12-16T03:19:04.000Z,261.82
2022-12-16T03:20:29.000Z,261.81
2022-12-16T03:22:32.000Z,261.82
2022-12-16T03:23:57.000Z,261.81
2022-12-16T03:26:00.000Z,261.79
2022-12-16T03:27:24.000Z,261.78
2022-12-16T03:29:28.000Z,261.75
2022-12-16T03:30:52.000Z,261.75
2022-12-16T03:32:56.000Z,261.75
2022-12-16T03:34:20.000Z,261.74
2022-12-16T03:36:24.000Z,261.74
2022-12-16T03:37:48.000Z,261.73
2022-12-16T03:39:51.000Z,261.71
2022-12-16T03:42:41.000Z,261.64
2022-12-16T03:44:05.000Z,261.63
2022-12-16T03:46:08.000Z,261.63
2022-12-16T03:47:33.000Z,261.6
2022-12-16T03:49:36.000Z,261.57
2022-12-16T03:51:01.000Z,261.56
2022-12-16T03:53:04.000Z,261.53
2022-12-16T03:54:29.000Z,261.5
2022-12-16T03:56:32.000Z,261.48
2022-12-16T03:57:56.000Z,261.45
2022-12-16T04:00:00.000Z,261.41
2022-12-16T04:01:24.000Z,261.41
2022-12-16T04:03:28.000Z,261.38
2022-12-16T04:04:52.000Z,261.39
2022-12-16T04:06:56.000Z,261.36
2022-12-16T04:08:20.000Z,261.38
2022-12-16T04:10:24.000Z,261.36
2022-12-16T04:11:48.000Z,261.35
2022-12-16T04:13:52.000Z,261.34
2022-12-16T04:15:16.000Z,261.34
2022-12-16T04:17:19.000Z,261.32
2022-12-16T04:20:09.000Z,261.31
2022-12-16T04:21:33.000Z,261.28
2022-12-16T04:23:36.000Z,261.28
2022-12-16T04:25:01.000Z,261.26
2022-12-16T04:27:04.000Z,261.26
2022-12-16T04:28:29.000Z,261.26
2022-12-16T04:30:32.000Z,261.26
2022-12-16T04:31:56.000Z,261.29
2022-12-16T04:34:00.000Z,261.28
2022-12-16T04:35:24.000Z,261.28
2022-12-16T04:37:28.000Z,261.31
2022-12-16T04:38:52.000Z,261.31
2022-12-16T04:40:56.000Z,261.34
2022-12-16T04:42:20.000Z,261.32
2022-12-16T04:44:24.000Z,261.32
2022-12-16T04:45:48.000Z,261.32
2022-12-16T04:47:52.000Z,261.29
2022-12-16T04:49:21.000Z,261.32
2022-12-16T04:51:25.000Z,261.35
2022-12-16T04:52:49.000Z,261.35
2022-12-16T04:54:53.000Z,261.36
2022-12-16T04:57:42.000Z,261.34
2022-12-16T04:59:06.000Z,261.34
2022-12-16T05:01:10.000Z,261.34
2022-12-16T05:02:34.000Z,261.38
2022-12-16T05:04:38.000Z,261.41
2022-12-16T05:06:02.000Z,261.43
2022-12-16T05:08:05.000Z,261.42
2022-12-16T05:09:30.000Z,261.42
2022-12-16T05:11:33.000Z,261.42
2022-12-16T05:12:58.000Z,261.41
2022-12-16T05:15:01.000Z,261.39
2022-12-16T05:16:25.000Z,261.38
2022-12-16T05:18:29.000Z,261.36
2022-12-16T05:19:53.000Z,261.34
2022-12-16T05:21:57.000Z,261.34
2022-12-16T05:23:21.000Z,261.32
2022-12-16T05:25:25.000Z,261.31
2022-12-16T05:26:49.000Z,261.29
2022-12-16T05:28:53.000Z,261.31
2022-12-16T05:30:17.000Z,261.34
2022-12-16T05:32:20.000Z,261.38
2022-12-16T05:35:09.000Z,261.42
2022-12-16T05:36:34.000Z,261.42
2022-12-16T05:38:37.000Z,261.41
2022-12-16T05:40:02.000Z,261.39
2022-12-16T05:42:05.000Z,261.39
2022-12-16T05:43:29.000Z,261.39
2022-12-16T05:45:34.000Z,261.38
2022-12-16T05:46:58.000Z,261.38
2022-12-16T05:49:02.000Z,261.35
2022-12-16T05:50:26.000Z,261.35
2022-12-16T05:52:30.000Z,261.36
2022-12-16T05:53:54.000Z,261.43
2022-12-16T05:55:58.000Z,261.45
2022-12-16T05:57:22.000Z,261.45
2022-12-16T05:59:26.000Z,261.46
2022-12-16T06:00:50.000Z,261.48
2022-12-16T06:02:53.000Z,261.48
2022-12-16T06:04:18.000Z,261.48
2022-12-16T06:06:22.000Z,261.52
2022-12-16T06:07:46.000Z,261.49
2022-12-16T06:09:50.000Z,261.48
2022-12-16T06:12:45.000Z,261.49
2022-12-16T06:14:10.000Z,261.48
2022-12-16T06:16:13.000Z,261.48
2022-12-16T06:17:38.000Z,261.49
2022-12-16T06:19:41.000Z,261.55
2022-12-16T06:21:06.000Z,261.55
2022-12-16T06:23:09.000Z,261.56
2022-12-16T06:24:33.000Z,261.6
2022-12-16T06:26:37.000Z,261.6
2022-12-16T06:28:01.000Z,261.6
2022-12-16T06:30:05.000Z,261.6
2022-12-16T06:31:29.000Z,261.64
2022-12-16T06:33:32.000Z,261.67
2022-12-16T06:34:57.000Z,261.71
2022-12-16T06:37:01.000Z,261.7
2022-12-16T06:38:25.000Z,261.74
2022-12-16T06:40:29.000Z,261.82
2022-12-16T06:41:53.000Z,261.82
2022-12-16T06:43:57.000Z,261.89
2022-12-16T06:45:21.000Z,261.99
2022-12-16T06:47:24.000Z,262.04
2022-12-16T06:50:13.000Z,262.16
2022-12-16T06:51:38.000Z,262.23
2022-12-16T06:53:41.000Z,262.31
2022-12-16T06:55:05.000Z,262.4
2022-12-16T06:57:09.000Z,262.47
2022-12-16T06:58:33.000Z,262.52
2022-12-16T07:00:37.000Z,262.59
2022-12-16T07:02:01.000Z,262.76
2022-12-16T07:04:05.000Z,262.84
2022-12-16T07:05:30.000Z,262.92
2022-12-16T07:07:33.000Z,263.02
2022-12-16T07:08:58.000Z,263.14
2022-12-16T07:11:01.000Z,263.23
2022-12-16T07:12:41.000Z,263.38
2022-12-16T07:14:44.000Z,263.5
2022-12-16T07:16:08.000Z,263.5
2022-12-16T07:18:12.000Z,263.54
2022-12-16T07:19:36.000Z,263.53
2022-12-16T07:21:40.000Z,263.65
2022-12-16T07:23:04.000Z,263.78
2022-12-16T07:25:16.000Z,263.84
2022-12-16T07:28:05.000Z,263.82
2022-12-16T07:29:37.000Z,263.97
2022-12-16T07:31:41.000Z,264.15
2022-12-16T07:33:05.000Z,264.33
2022-12-16T07:35:09.000Z,264.29
2022-12-16T07:36:33.000Z,264.34
2022-12-16T07:38:37.000Z,264.48
2022-12-16T07:40:01.000Z,264.33
2022-12-16T07:42:04.000Z,264.42
2022-12-16T07:43:29.000Z,264.42
2022-12-16T07:45:33.000Z,264.48
2022-12-16T07:46:57.000Z,264.7
2022-12-16T07:49:01.000Z,264.94
2022-12-16T07:50:25.000Z,265.08
2022-12-16T07:52:29.000Z,265.26
2022-12-16T07:53:53.000Z,265.21
2022-12-16T07:55:57.000Z,265.26
2022-12-16T07:57:21.000Z,265.39
2022-12-16T07:59:24.000Z,265.36
2022-12-16T08:00:49.000Z,265.48
2022-12-16T08:02:52.000Z,265.52
2022-12-16T08:05:44.000Z,265.58
2022-12-16T08:07:09.000Z,265.65
2022-12-16T08:09:12.000Z,265.79
2022-12-16T08:10:37.000Z,265.9
2022-12-16T08:12:40.000Z,265.88
2022-12-16T08:14:04.000Z,265.91
2022-12-16T08:16:08.000Z,265.93
2022-12-16T08:17:32.000Z,265.88
2022-12-16T08:19:36.000Z,265.91
2022-12-16T08:21:00.000Z,265.93
2022-12-16T08:23:04.000Z,265.95
2022-12-16T08:24:28.000Z,266.09
2022-12-16T08:26:31.000Z,266.03
2022-12-16T08:27:56.000Z,266.2
2022-12-16T08:29:59.000Z,266.35
2022-12-16T08:31:24.000Z,266.45
2022-12-16T08:33:27.000Z,266.5
2022-12-16T08:34:52.000Z,266.55
2022-12-16T08:36:55.000Z,266.67
2022-12-16T08:38:19.000Z,266.65
2022-12-16T08:40:23.000Z,266.57
2022-12-16T08:43:24.000Z,266.74
2022-12-16T08:44:49.000Z,266.82
2022-12-16T08:46:52.000Z,266.87
2022-12-16T08:48:17.000Z,266.87
2022-12-16T08:50:20.000Z,266.9
2022-12-16T08:51:45.000Z,266.99
2022-12-16T08:53:48.000Z,267.03
2022-12-16T08:55:13.000Z,267.07
2022-12-16T08:57:16.000Z,267.03
2022-12-16T08:58:41.000Z,267.01
2022-12-16T09:00:44.000Z,267.05
2022-12-16T09:02:08.000Z,267.07
2022-12-16T09:04:12.000Z,267.08
2022-12-16T09:05:37.000Z,267.19
2022-12-16T09:07:40.000Z,267.26
2022-12-16T09:09:04.000Z,267.26
2022-12-16T09:11:08.000Z,267.3
2022-12-16T09:12:32.000Z,267.33
2022-12-16T09:14:36.000Z,267.37
2022-12-16T09:16:00.000Z,267.41
2022-12-16T09:18:04.000Z,267.41
2022-12-16T09:20:53.000Z,267.45
2022-12-16T09:22:17.000Z,267.54
2022-12-16T09:24:21.000Z,267.59
2022-12-16T09:25:45.000Z,267.62
2022-12-16T09:27:49.000Z,267.66
2022-12-16T09:29:13.000Z,267.66
2022-12-16T09:31:17.000Z,267.75
2022-12-16T09:32:41.000Z,267.74
2022-12-16T09:34:45.000Z,267.82
2022-12-16T09:36:09.000Z,267.84
2022-12-16T09:38:13.000Z,267.85
2022-12-16T09:39:37.000Z,267.92
2022-12-16T09:41:40.000Z,267.95
2022-12-16T09:43:09.000Z,267.99
2022-12-16T09:45:12.000Z,268.06
2022-12-16T09:46:37.000Z,268.09
2022-12-16T09:48:40.000Z,268.1
2022-12-16T09:50:04.000Z,268.13
2022-12-16T09:52:08.000Z,268.18
2022-12-16T09:53:35.000Z,268.21
2022-12-16T09:55:40.000Z,268.23
2022-12-16T09:58:29.000Z,268.32
2022-12-16T09:59:53.000Z,268.39
2022-12-16T10:01:57.000Z,268.4
2022-12-16T10:03:21.000Z,268.46
2022-12-16T10:05:25.000Z,268.51
2022-12-16T10:06:50.000Z,268.53
2022-12-16T10:08:54.000Z,268.53
2022-12-16T10:10:18.000Z,268.61
2022-12-16T10:12:21.000Z,268.61
2022-12-16T10:13:46.000Z,268.67
2022-12-16T10:15:49.000Z,268.69
2022-12-16T10:17:14.000Z,268.74
2022-12-16T10:19:17.000Z,268.72
2022-12-16T10:20:42.000Z,268.78
2022-12-16T10:22:45.000Z,268.79
2022-12-16T10:24:09.000Z,268.76
2022-12-16T10:26:13.000Z,268.79
2022-12-16T10:27:37.000Z,268.79
2022-12-16T10:29:41.000Z,268.84
2022-12-16T10:31:05.000Z,268.93
2022-12-16T10:33:09.000Z,268.93
2022-12-16T10:35:58.000Z,269
2022-12-16T10:37:22.000Z,269.01
2022-12-16T10:39:26.000Z,269.04
2022-12-16T10:40:50.000Z,269.04
2022-12-16T10:42:54.000Z,269.08
2022-12-16T10:44:19.000Z,269.13
2022-12-16T10:46:23.000Z,269.17
2022-12-16T10:47:47.000Z,269.2
2022-12-16T10:49:51.000Z,269.24
2022-12-16T10:51:19.000Z,269.29
2022-12-16T10:53:22.000Z,269.3
2022-12-16T10:54:47.000Z,269.33
2022-12-16T10:56:50.000Z,269.37
2022-12-16T10:58:15.000Z,269.44
2022-12-16T11:00:18.000Z,269.46
2022-12-16T11:01:43.000Z,269.55
2022-12-16T11:03:47.000Z,269.56
2022-12-16T11:05:11.000Z,269.6
2022-12-16T11:07:15.000Z,269.66
2022-12-16T11:08:39.000Z,269.71
2022-12-16T11:10:42.000Z,269.71
2022-12-16T11:13:32.000Z,269.78
2022-12-16T11:14:57.000Z,269.8
2022-12-16T11:17:31.000Z,269.82
2022-12-16T11:18:56.000Z,269.82
2022-12-16T11:20:59.000Z,269.84
2022-12-16T11:22:29.000Z,269.87
2022-12-16T11:24:33.000Z,269.88
2022-12-16T11:25:57.000Z,269.92
2022-12-16T11:28:00.000Z,269.94
2022-12-16T11:29:25.000Z,269.98
2022-12-16T11:31:28.000Z,269.99
2022-12-16T11:32:53.000Z,270
2022-12-16T11:34:57.000Z,270.03
2022-12-16T11:36:21.000Z,270.03
2022-12-16T11:38:24.000Z,270.03
2022-12-16T11:39:49.000Z,270.08
2022-12-16T11:41:52.000Z,270.05
2022-12-16T11:43:17.000Z,270.05
2022-12-16T11:45:20.000Z,270.02
2022-12-16T11:46:45.000Z,270.05
2022-12-16T11:48:48.000Z,270.08
2022-12-16T11:51:37.000Z,270.14
2022-12-16T11:53:02.000Z,270.15
2022-12-16T11:55:05.000Z,270.14
2022-12-16T11:56:30.000Z,270.17
2022-12-16T11:58:33.000Z,270.21
2022-12-16T11:59:58.000Z,270.25
2022-12-16T12:02:01.000Z,270.29
2022-12-16T12:03:26.000Z,270.33
2022-12-16T12:05:29.000Z,270.36
2022-12-16T12:06:53.000Z,270.4
2022-12-16T12:08:57.000Z,270.39
2022-12-16T12:10:21.000Z,270.33
2022-12-16T12:12:25.000Z,270.36
2022-12-16T12:13:49.000Z,270.36
2022-12-16T12:15:52.000Z,270.38
2022-12-16T12:17:18.000Z,270.4
2022-12-16T12:19:21.000Z,270.4
2022-12-16T12:20:46.000Z,270.4
2022-12-16T12:22:49.000Z,270.43
2022-12-16T12:24:14.000Z,270.43
2022-12-16T12:26:17.000Z,270.38
2022-12-16T12:29:06.000Z,270.33
2022-12-16T12:30:31.000Z,270.29
2022-12-16T12:32:34.000Z,270.29
2022-12-16T12:33:59.000Z,270.29
2022-12-16T12:36:02.000Z,270.29
2022-12-16T12:37:26.000Z,270.28
2022-12-16T12:39:30.000Z,270.32
2022-12-16T12:40:54.000Z,270.32
2022-12-16T12:42:58.000Z,270.35
2022-12-16T12:44:22.000Z,270.4
2022-12-16T12:46:27.000Z,270.38
2022-12-16T12:47:52.000Z,270.35
2022-12-16T12:49:55.000Z,270.33
2022-12-16T12:51:20.000Z,270.32
2022-12-16T12:53:23.000Z,270.33
2022-12-16T12:54:48.000Z,270.35
2022-12-16T12:56:51.000Z,270.36
2022-12-16T12:58:16.000Z,270.33
2022-12-16T13:00:19.000Z,270.38
2022-12-16T13:01:44.000Z,270.42
2022-12-16T13:03:47.000Z,270.45
2022-12-16T13:06:37.000Z,270.45
2022-12-16T13:08:01.000Z,270.46
2022-12-16T13:10:05.000Z,270.46
2022-12-16T13:11:29.000Z,270.45
2022-12-16T13:13:38.000Z,270.46
2022-12-16T13:15:03.000Z,270.43
2022-12-16T13:17:06.000Z,270.43
2022-12-16T13:18:31.000Z,270.46
2022-12-16T13:20:34.000Z,270.46
2022-12-16T13:21:59.000Z,270.47
2022-12-16T13:24:02.000Z,270.46
2022-12-16T13:25:26.000Z,270.45
2022-12-16T13:27:30.000Z,270.42
2022-12-16T13:28:54.000Z,270.39
2022-12-16T13:30:58.000Z,270.38
2022-12-16T13:32:22.000Z,270.33
2022-12-16T13:34:25.000Z,270.32
2022-12-16T13:35:50.000Z,270.28
2022-12-16T13:37:53.000Z,270.26
2022-12-16T13:39:18.000Z,270.24
2022-12-16T13:41:21.000Z,270.22
2022-12-16T13:44:10.000Z,270.25
2022-12-16T13:45:34.000Z,270.29
2022-12-16T13:47:38.000Z,270.33
2022-12-16T13:49:02.000Z,270.33
2022-12-16T13:51:06.000Z,270.36
2022-12-16T13:52:30.000Z,270.38
2022-12-16T13:54:34.000Z,270.39
2022-12-16T13:55:58.000Z,270.39
2022-12-16T13:58:01.000Z,270.4
2022-12-16T13:59:26.000Z,270.4
2022-12-16T14:01:30.000Z,270.38
2022-12-16T14:02:54.000Z,270.38
2022-12-16T14:06:32.000Z,270.38
2022-12-16T14:07:06.000Z,270.38
2022-12-16T14:08:30.000Z,270.33
2022-12-16T14:10:33.000Z,270.31
2022-12-16T14:11:58.000Z,270.32
2022-12-16T14:14:01.000Z,270.31
2022-12-16T14:15:26.000Z,270.28
2022-12-16T14:17:29.000Z,270.28
2022-12-16T14:18:54.000Z,270.28
2022-12-16T14:20:57.000Z,270.25
2022-12-16T14:23:40.000Z,270.2
2022-12-16T14:25:21.000Z,270.18
2022-12-16T14:27:31.000Z,270.15
2022-12-16T14:28:55.000Z,270.13
2022-12-16T14:30:59.000Z,270.08
2022-12-16T14:32:23.000Z,270.07
2022-12-16T14:34:26.000Z,270.05
2022-12-16T14:35:51.000Z,270.02
2022-12-16T14:37:54.000Z,269.95
2022-12-16T14:39:19.000Z,269.94
2022-12-16T14:41:22.000Z,269.89
2022-12-16T14:42:46.000Z,269.87
2022-12-16T14:44:50.000Z,269.81
2022-12-16T14:46:14.000Z,269.75
2022-12-16T14:48:18.000Z,269.73
2022-12-16T14:49:42.000Z,269.7
2022-12-16T14:51:46.000Z,269.62
2022-12-16T14:53:10.000Z,269.59
2022-12-16T14:55:14.000Z,269.55
2022-12-16T14:56:38.000Z,269.5
2022-12-16T14:58:41.000Z,269.46
2022-12-16T15:03:03.000Z,269.38
2022-12-16T15:03:37.000Z,269.33
2022-12-16T15:05:02.000Z,269.3
2022-12-16T15:07:06.000Z,269.26
2022-12-16T15:08:31.000Z,269.23
2022-12-16T15:10:35.000Z,269.16
2022-12-16T15:11:59.000Z,269.12
2022-12-16T15:14:03.000Z,269.05
2022-12-16T15:15:28.000Z,269.02
2022-12-16T15:17:31.000Z,269.02
2022-12-16T15:18:56.000Z,269
2022-12-16T15:21:00.000Z,268.98
2022-12-16T15:22:24.000Z,268.91
2022-12-16T15:24:28.000Z,268.87
2022-12-16T15:25:52.000Z,268.84
2022-12-16T15:27:55.000Z,268.81
2022-12-16T15:29:20.000Z,268.75
2022-12-16T15:31:23.000Z,268.72
2022-12-16T15:32:48.000Z,268.65
2022-12-16T15:34:51.000Z,268.63
2022-12-16T15:36:16.000Z,268.57
2022-12-16T15:38:19.000Z,268.53
2022-12-16T15:41:03.000Z,268.44
2022-12-16T15:42:27.000Z,268.4
2022-12-16T15:44:30.000Z,268.37
2022-12-16T15:45:55.000Z,268.31
2022-12-16T15:47:58.000Z,268.25
2022-12-16T15:49:23.000Z,268.21
2022-12-16T15:51:26.000Z,268.17
2022-12-16T15:52:51.000Z,268.13
2022-12-16T15:54:54.000Z,268.09
2022-12-16T15:56:19.000Z,268.03
2022-12-16T15:58:22.000Z,267.99
2022-12-16T15:59:47.000Z,267.93
2022-12-16T16:01:50.000Z,267.93
2022-12-16T16:03:15.000Z,267.88
2022-12-16T16:05:19.000Z,267.86
2022-12-16T16:06:43.000Z,267.81
2022-12-16T16:08:46.000Z,267.75
2022-12-16T16:10:11.000Z,267.74
2022-12-16T16:12:14.000Z,267.66
2022-12-16T16:13:39.000Z,267.58
2022-12-16T16:15:42.000Z,267.52
2022-12-16T16:18:31.000Z,267.43
2022-12-16T16:19:56.000Z,267.37
2022-12-16T16:22:06.000Z,267.33
2022-12-16T16:23:31.000Z,267.29
2022-12-16T16:25:35.000Z,267.27
2022-12-16T16:26:59.000Z,267.2
2022-12-16T16:29:02.000Z,267.15
2022-12-16T16:30:27.000Z,267.08
2022-12-16T16:32:30.000Z,267.07
2022-12-16T16:33:55.000Z,267.01
2022-12-16T16:35:58.000Z,267
2022-12-16T16:37:23.000Z,266.94
2022-12-16T16:39:26.000Z,266.9
2022-12-16T16:40:50.000Z,266.86
2022-12-16T16:42:54.000Z,266.83
2022-12-16T16:44:18.000Z,266.76
2022-12-16T16:46:23.000Z,266.74
2022-12-16T16:47:48.000Z,266.69
2022-12-16T16:49:51.000Z,266.64
2022-12-16T16:51:15.000Z,266.6
2022-12-16T16:53:19.000Z,266.57
2022-12-16T16:56:08.000Z,266.46
2022-12-16T16:57:33.000Z,266.41
2022-12-16T16:59:36.000Z,266.39
2022-12-16T17:01:01.000Z,266.36
2022-12-16T17:03:04.000Z,266.36
2022-12-16T17:04:29.000Z,266.34
2022-12-16T17:06:32.000Z,266.32
2022-12-16T17:07:57.000Z,266.24
2022-12-16T17:10:00.000Z,266.24
2022-12-16T17:11:25.000Z,266.2
2022-12-16T17:13:28.000Z,266.14
2022-12-16T17:14:53.000Z,266.1
2022-12-16T17:16:56.000Z,266.05
2022-12-16T17:18:20.000Z,266.01
2022-12-16T17:20:24.000Z,265.95
2022-12-16T17:21:48.000Z,265.91
2022-12-16T17:23:52.000Z,265.86
2022-12-16T17:25:16.000Z,265.86
2022-12-16T17:27:19.000Z,265.86
2022-12-16T17:28:44.000Z,265.83
2022-12-16T17:30:47.000Z,265.8
2022-12-16T17:33:36.000Z,265.77
2022-12-16T17:35:02.000Z,265.76
2022-12-16T17:37:05.000Z,265.73
2022-12-16T17:38:29.000Z,265.73
2022-12-16T17:40:33.000Z,265.7
2022-12-16T17:41:57.000Z,265.65
2022-12-16T17:44:01.000Z,265.65
2022-12-16T17:45:25.000Z,265.62
2022-12-16T17:47:29.000Z,265.58
2022-12-16T17:48:53.000Z,265.56
2022-12-16T17:50:56.000Z,265.54
2022-12-16T17:52:21.000Z,265.51
2022-12-16T17:54:24.000Z,265.47
2022-12-16T17:55:53.000Z,265.43
2022-12-16T17:57:57.000Z,265.4
2022-12-16T17:59:21.000Z,265.36
2022-12-16T18:01:24.000Z,265.35
2022-12-16T18:02:49.000Z,265.29
2022-12-16T18:04:53.000Z,265.25
2022-12-16T18:06:17.000Z,265.21
2022-12-16T18:08:21.000Z,265.21
2022-12-16T18:11:10.000Z,265.15
2022-12-16T18:12:35.000Z,265.14
2022-12-16T18:14:38.000Z,265.14
2022-12-16T18:16:02.000Z,265.12
2022-12-16T18:18:06.000Z,265.11
2022-12-16T18:19:30.000Z,265.11
2022-12-16T18:21:34.000Z,265.14
2022-12-16T18:22:58.000Z,265.14
2022-12-16T18:25:02.000Z,265.15
2022-12-16T18:26:26.000Z,265.18
2022-12-16T18:28:29.000Z,265.18
2022-12-16T18:29:54.000Z,265.22
2022-12-16T18:31:57.000Z,265.23
2022-12-16T18:33:22.000Z,265.25
2022-12-16T18:35:25.000Z,265.29
2022-12-16T18:36:50.000Z,265.3
2022-12-16T18:38:53.000Z,265.33
2022-12-16T18:40:17.000Z,265.35
2022-12-16T18:42:21.000Z,265.37
2022-12-16T18:43:45.000Z,265.39
2022-12-16T18:45:49.000Z,265.39
2022-12-16T18:48:38.000Z,265.42
2022-12-16T18:50:02.000Z,265.47
2022-12-16T18:52:06.000Z,265.49
2022-12-16T18:53:30.000Z,265.49
2022-12-16T18:55:34.000Z,265.51
2022-12-16T18:56:58.000Z,265.54
2022-12-16T18:59:02.000Z,265.54
2022-12-16T19:00:26.000Z,265.56
2022-12-16T19:02:30.000Z,265.55
2022-12-16T19:03:54.000Z,265.56
2022-12-16T19:05:58.000Z,265.56
2022-12-16T19:07:22.000Z,265.58
2022-12-16T19:09:26.000Z,265.58
2022-12-16T19:10:50.000Z,265.59
2022-12-16T19:12:53.000Z,265.61
2022-12-16T19:14:18.000Z,265.62
2022-12-16T19:16:21.000Z,265.63
2022-12-16T19:17:46.000Z,265.63
2022-12-16T19:19:49.000Z,265.65
2022-12-16T19:21:14.000Z,265.7
2022-12-16T19:23:17.000Z,265.72
2022-12-16T19:26:07.000Z,265.76
2022-12-16T19:27:31.000Z,265.77
2022-12-16T19:29:34.000Z,265.79
2022-12-16T19:30:59.000Z,265.83
2022-12-16T19:33:02.000Z,265.86
2022-12-16T19:34:27.000Z,265.84
2022-12-16T19:36:30.000Z,265.88
2022-12-16T19:37:54.000Z,265.93
2022-12-16T19:40:00.000Z,265.95
2022-12-16T19:41:24.000Z,265.94
2022-12-16T19:43:27.000Z,265.97
2022-12-16T19:44:52.000Z,265.99
2022-12-16T19:46:59.000Z,266.01
2022-12-16T19:48:23.000Z,266.02
2022-12-16T19:50:27.000Z,266.06
2022-12-16T19:51:51.000Z,266.09
2022-12-16T19:53:55.000Z,266.09
2022-12-16T19:55:20.000Z,266.13
2022-12-16T19:57:24.000Z,266.14
2022-12-16T19:58:48.000Z,266.17
2022-12-16T20:00:51.000Z,266.17
2022-12-16T20:03:40.000Z,266.19
2022-12-16T20:05:05.000Z,266.19
2022-12-16T20:07:09.000Z,266.23
2022-12-16T20:08:33.000Z,266.26
2022-12-16T20:10:37.000Z,266.26
2022-12-16T20:12:01.000Z,266.26
2022-12-16T20:14:05.000Z,266.27
2022-12-16T20:15:29.000Z,266.31
2022-12-16T20:17:32.000Z,266.34
2022-12-16T20:18:57.000Z,266.34
2022-12-16T20:21:00.000Z,266.34
2022-12-16T20:22:25.000Z,266.36
2022-12-16T20:24:28.000Z,266.35
2022-12-16T20:25:53.000Z,266.39
2022-12-16T20:28:00.000Z,266.42
2022-12-16T20:29:24.000Z,266.43
2022-12-16T20:31:27.000Z,266.45
2022-12-16T20:32:52.000Z,266.46
2022-12-16T20:34:59.000Z,266.46
2022-12-16T20:36:23.000Z,266.53
2022-12-16T20:38:27.000Z,266.53
2022-12-16T20:41:16.000Z,266.53
2022-12-16T20:42:41.000Z,266.55
2022-12-16T20:44:44.000Z,266.55
2022-12-16T20:46:09.000Z,266.6
2022-12-16T20:48:12.000Z,266.6
2022-12-16T20:49:37.000Z,266.61
2022-12-16T20:51:40.000Z,266.61
2022-12-16T20:53:05.000Z,266.6
2022-12-16T20:55:08.000Z,266.6
2022-12-16T20:56:33.000Z,266.64
2022-12-16T20:58:36.000Z,266.67
2022-12-16T21:00:01.000Z,266.64
2022-12-16T21:02:04.000Z,266.67
2022-12-16T21:23:59.000Z,266.87
2022-12-16T21:25:23.000Z,266.89
2022-12-16T21:27:28.000Z,266.87
2022-12-16T21:28:52.000Z,266.9
2022-12-16T21:30:59.000Z,266.93
2022-12-16T21:32:23.000Z,266.97
2022-12-16T21:34:27.000Z,266.99
2022-12-16T21:35:51.000Z,267
2022-12-16T21:37:55.000Z,267.03
2022-12-16T21:39:20.000Z,267.08
2022-12-16T21:41:24.000Z,267.13
2022-12-16T21:42:48.000Z,267.18
2022-12-16T21:44:52.000Z,267.19
2022-12-16T21:46:16.000Z,267.23
2022-12-16T21:48:19.000Z,267.27
2022-12-16T21:49:44.000Z,267.32
2022-12-16T21:51:47.000Z,267.34
2022-12-16T21:53:12.000Z,267.36
2022-12-16T21:55:15.000Z,267.38
2022-12-16T21:56:40.000Z,267.37
2022-12-16T21:58:43.000Z,267.38
2022-12-16T22:01:32.000Z,267.36
2022-12-16T22:02:57.000Z,267.34
2022-12-16T22:05:00.000Z,267.36
2022-12-16T22:06:25.000Z,267.37
2022-12-16T22:08:28.000Z,267.37
2022-12-16T22:09:53.000Z,267.33
2022-12-16T22:11:59.000Z,267.34
2022-12-16T22:13:23.000Z,267.34
2022-12-16T22:15:27.000Z,267.33
2022-12-16T22:16:51.000Z,267.34
2022-12-16T22:18:55.000Z,267.36
2022-12-16T22:20:20.000Z,267.34
2022-12-16T22:22:23.000Z,267.36
2022-12-16T22:23:48.000Z,267.38
2022-12-16T22:25:51.000Z,267.38
2022-12-16T22:27:17.000Z,267.38
2022-12-16T22:29:20.000Z,267.37
2022-12-16T22:30:45.000Z,267.37
2022-12-16T22:32:48.000Z,267.36
2022-12-16T22:34:13.000Z,267.36
2022-12-16T22:36:16.000Z,267.36
2022-12-16T22:39:05.000Z,267.38
2022-12-16T22:40:30.000Z,267.4
2022-12-16T22:42:33.000Z,267.41